Time;durP1;ratioP1;P1;durP2;ratioP2;P2;SDS_P1;SDS_P2;PMS_P1;PMS_P2;Temp;Humidity;BMP_temperature;BMP_pressure;BME280_temperature;BME280_humidity;BME280_pressure;Samples;Min_cycle;Max_cycle;Signal;HPM_P1;HPM_P2
2023/10/04 00:00:21;;;;;;;3.90;1.77;;;11.70;99.90;;;;;;5016442;28;20025;-67
2023/10/04 00:02:52;;;;;;;5.15;1.70;;;11.70;99.90;;;;;;5017511;28;20026;-67
2023/10/04 00:05:19;;;;;;;3.05;1.58;;;11.70;99.90;;;;;;5016422;28;20030;-67
2023/10/04 00:07:46;;;;;;;2.17;1.23;;;11.60;99.90;;;;;;5017200;28;20022;-67
2023/10/04 00:10:16;;;;;;;4.32;1.25;;;11.50;99.90;;;;;;5020187;28;20033;-67
2023/10/04 00:12:43;;;;;;;2.22;1.15;;;11.40;99.90;;;;;;5023528;28;20018;-67
2023/10/04 00:15:12;;;;;;;4.85;1.60;;;11.30;99.90;;;;;;5023913;28;20104;-66
2023/10/04 00:17:41;;;;;;;4.18;1.60;;;11.30;99.90;;;;;;5023630;28;20033;-67
2023/10/04 00:20:10;;;;;;;1.98;1.10;;;11.20;99.90;;;;;;5023693;28;20022;-67
2023/10/04 00:22:36;;;;;;;4.05;1.27;;;11.10;99.90;;;;;;5023630;28;20089;-67
2023/10/04 00:25:03;;;;;;;2.65;1.20;;;11.00;99.90;;;;;;5023934;28;20026;-67
2023/10/04 00:27:30;;;;;;;1.25;1.08;;;11.00;99.90;;;;;;5022655;28;20026;-67
2023/10/04 00:29:55;;;;;;;2.35;1.20;;;11.00;99.90;;;;;;5023680;28;20029;-67
2023/10/04 00:32:21;;;;;;;1.70;1.10;;;10.90;99.90;;;;;;5022959;28;20021;-67
2023/10/04 00:34:46;;;;;;;5.50;1.30;;;10.80;99.90;;;;;;5023447;28;20022;-71
2023/10/04 00:37:15;;;;;;;4.70;1.48;;;11.00;99.90;;;;;;5022719;28;20022;-71
2023/10/04 00:39:40;;;;;;;3.80;1.50;;;11.00;99.90;;;;;;5023379;28;20022;-71
2023/10/04 00:42:06;;;;;;;4.78;1.50;;;11.20;99.90;;;;;;5022570;28;20136;-71
2023/10/04 00:44:35;;;;;;;4.15;1.63;;;11.10;99.90;;;;;;5023624;28;20021;-71
2023/10/04 00:47:05;;;;;;;4.35;1.27;;;11.10;99.90;;;;;;5022991;28;20029;-71
2023/10/04 00:49:32;;;;;;;2.65;1.48;;;11.20;99.90;;;;;;5023695;28;20052;-71
2023/10/04 00:52:00;;;;;;;3.47;1.75;;;11.10;99.90;;;;;;5023297;28;20076;-71
2023/10/04 00:54:26;;;;;;;3.95;2.33;;;11.20;99.90;;;;;;5023414;28;20096;-71
2023/10/04 00:56:52;;;;;;;3.47;1.83;;;11.10;99.90;;;;;;5023173;28;20145;-71
2023/10/04 00:59:17;;;;;;;4.25;1.98;;;11.20;99.90;;;;;;5023483;28;20026;-71
2023/10/04 01:01:43;;;;;;;3.78;1.35;;;11.20;99.90;;;;;;5022530;28;20029;-71
2023/10/04 01:04:10;;;;;;;4.20;1.88;;;11.20;99.90;;;;;;5023503;28;20018;-71
2023/10/04 01:06:37;;;;;;;4.15;1.50;;;11.10;99.90;;;;;;5022277;28;20030;-71
2023/10/04 01:09:03;;;;;;;5.07;2.17;;;11.20;99.90;;;;;;5022346;28;20037;-71
2023/10/04 01:11:35;;;;;;;4.45;1.70;;;11.20;99.90;;;;;;5023201;28;20028;-71
2023/10/04 01:14:18;;;;;;;7.30;2.80;;;11.20;99.90;;;;;;5023276;28;20026;-71
2023/10/04 01:16:43;;;;;;;6.68;1.45;;;11.20;99.90;;;;;;5023259;28;20021;-71
2023/10/04 01:19:14;;;;;;;5.03;1.38;;;11.10;99.90;;;;;;5022232;28;20026;-71
2023/10/04 01:21:39;;;;;;;3.67;0.95;;;11.00;99.90;;;;;;5021292;28;20025;-71
2023/10/04 01:24:08;;;;;;;7.57;1.17;;;10.80;99.90;;;;;;5018990;28;20109;-71
2023/10/04 01:26:36;;;;;;;2.67;1.40;;;10.70;99.90;;;;;;5019951;28;20028;-71
2023/10/04 01:29:10;;;;;;;2.92;1.73;;;10.70;99.90;;;;;;5020237;28;20026;-71
2023/10/04 01:31:35;;;;;;;4.15;1.92;;;10.70;99.90;;;;;;5020259;28;20022;-71
2023/10/04 01:34:02;;;;;;;4.43;1.58;;;10.80;99.90;;;;;;5019223;28;20086;-71
2023/10/04 01:36:31;;;;;;;3.60;2.05;;;10.80;99.90;;;;;;5019145;28;20026;-71
2023/10/04 01:38:57;;;;;;;5.43;1.83;;;10.70;99.90;;;;;;5019854;28;20026;-71
2023/10/04 01:41:24;;;;;;;2.70;1.45;;;10.60;99.90;;;;;;5019606;28;20026;-71
2023/10/04 01:43:53;;;;;;;2.92;1.77;;;10.60;99.90;;;;;;5019811;28;20022;-71
2023/10/04 01:46:19;;;;;;;2.58;1.38;;;10.50;99.90;;;;;;5019605;28;20104;-71
2023/10/04 01:48:45;;;;;;;5.43;1.50;;;10.50;99.90;;;;;;5018945;28;20026;-71
2023/10/04 01:51:12;;;;;;;7.38;2.08;;;10.60;99.90;;;;;;5019732;28;20061;-71
2023/10/04 01:53:38;;;;;;;4.18;2.03;;;10.60;99.90;;;;;;5018475;28;20026;-71
2023/10/04 01:56:07;;;;;;;4.85;1.88;;;10.60;99.90;;;;;;5019287;28;20032;-71
2023/10/04 01:58:33;;;;;;;3.65;2.15;;;10.70;99.90;;;;;;5019607;28;20045;-71
2023/10/04 02:01:02;;;;;;;5.70;2.10;;;10.50;99.90;;;;;;5018534;28;20029;-71
2023/10/04 02:03:27;;;;;;;3.63;1.98;;;10.60;99.90;;;;;;5019250;28;20022;-71
2023/10/04 02:05:59;;;;;;;3.90;2.20;;;10.70;99.90;;;;;;5018336;28;20053;-71
2023/10/04 02:08:25;;;;;;;5.18;1.77;;;10.90;99.90;;;;;;5019514;28;20018;-71
2023/10/04 02:10:52;;;;;;;5.13;1.90;;;10.90;99.90;;;;;;5018328;28;20022;-71
2023/10/04 02:13:21;;;;;;;4.80;2.03;;;10.90;99.90;;;;;;5019112;28;20030;-71
2023/10/04 02:15:52;;;;;;;5.05;2.15;;;11.00;99.90;;;;;;5018769;28;20034;-70
2023/10/04 02:18:19;;;;;;;7.53;2.70;;;11.00;99.90;;;;;;5018352;28;20038;-71
2023/10/04 02:20:47;;;;;;;7.50;2.72;;;11.20;99.90;;;;;;5018925;28;20030;-71
2023/10/04 02:23:16;;;;;;;4.20;2.05;;;11.20;99.90;;;;;;5018921;28;20096;-71
2023/10/04 02:25:42;;;;;;;4.95;2.05;;;11.20;99.90;;;;;;5018833;28;20029;-71
2023/10/04 02:28:30;;;;;;;6.50;2.72;;;11.10;99.90;;;;;;5018900;28;20018;-71
2023/10/04 02:30:56;;;;;;;3.90;1.98;;;11.10;99.90;;;;;;5018493;28;20111;-71
2023/10/04 02:33:22;;;;;;;4.63;1.98;;;11.00;99.90;;;;;;5018856;28;20025;-71
2023/10/04 02:35:48;;;;;;;5.78;2.20;;;10.90;99.90;;;;;;5018525;28;20033;-71
2023/10/04 02:38:16;;;;;;;3.38;2.10;;;10.90;99.90;;;;;;5018570;28;20018;-71
2023/10/04 02:40:43;;;;;;;3.95;2.40;;;10.80;99.90;;;;;;5017755;28;20107;-71
2023/10/04 02:43:09;;;;;;;4.68;2.47;;;10.70;99.90;;;;;;5017605;28;20109;-71
2023/10/04 02:45:36;;;;;;;5.22;2.22;;;10.90;99.90;;;;;;5018378;28;20053;-71
2023/10/04 02:48:04;;;;;;;4.03;2.05;;;10.80;99.90;;;;;;5018838;28;20026;-71
2023/10/04 02:50:30;;;;;;;3.60;1.92;;;10.80;99.90;;;;;;5018374;28;20022;-71
2023/10/04 02:52:56;;;;;;;5.15;1.95;;;10.90;99.90;;;;;;5018694;28;20032;-71
2023/10/04 02:55:22;;;;;;;4.20;1.92;;;10.80;99.90;;;;;;5018574;28;20037;-71
2023/10/04 02:57:51;;;;;;;4.97;2.20;;;10.80;99.90;;;;;;5018247;28;20025;-71
2023/10/04 03:00:19;;;;;;;4.32;2.05;;;10.70;99.90;;;;;;5018101;28;20025;-71
2023/10/04 03:02:50;;;;;;;2.63;1.52;;;10.80;99.90;;;;;;5018180;28;20022;-71
2023/10/04 03:05:20;;;;;;;3.67;1.83;;;10.80;99.90;;;;;;5017316;28;20022;-71
2023/10/04 03:07:47;;;;;;;4.50;2.45;;;10.80;99.90;;;;;;5017457;28;20025;-71
2023/10/04 03:10:14;;;;;;;3.70;2.25;;;10.90;99.90;;;;;;5017172;28;20025;-71
2023/10/04 03:12:41;;;;;;;4.38;2.03;;;10.80;99.90;;;;;;5018856;28;20033;-71
2023/10/04 03:15:07;;;;;;;7.13;2.40;;;10.80;99.90;;;;;;5018043;28;20026;-71
2023/10/04 03:17:33;;;;;;;4.85;1.88;;;10.80;99.90;;;;;;5016803;28;20034;-71
2023/10/04 03:20:00;;;;;;;4.38;2.08;;;10.70;99.90;;;;;;5017904;28;20021;-71
2023/10/04 03:22:26;;;;;;;4.15;1.98;;;10.70;99.90;;;;;;5016985;28;20076;-71
2023/10/04 03:24:52;;;;;;;3.25;2.03;;;10.60;99.90;;;;;;5017761;28;20030;-71
2023/10/04 03:27:21;;;;;;;3.45;1.65;;;10.60;99.90;;;;;;5017822;28;20033;-71
2023/10/04 03:29:52;;;;;;;3.13;1.70;;;10.60;99.90;;;;;;5017606;28;20028;-71
2023/10/04 03:32:18;;;;;;;5.22;1.92;;;10.70;99.90;;;;;;5017945;28;20029;-71
2023/10/04 03:34:44;;;;;;;4.30;1.90;;;10.80;99.90;;;;;;5016653;28;20029;-71
2023/10/04 03:37:13;;;;;;;8.70;2.00;;;10.80;99.90;;;;;;5017614;28;20034;-71
2023/10/04 03:39:39;;;;;;;3.80;1.95;;;10.80;99.90;;;;;;5017564;28;20022;-71
2023/10/04 03:42:05;;;;;;;2.78;1.80;;;10.90;99.90;;;;;;5016986;28;20022;-71
2023/10/04 03:44:31;;;;;;;3.35;1.85;;;11.00;99.90;;;;;;5016056;28;20124;-71
2023/10/04 03:46:57;;;;;;;4.47;1.90;;;11.00;99.90;;;;;;5016475;28;20186;-71
2023/10/04 03:49:24;;;;;;;3.95;1.70;;;11.00;99.90;;;;;;5017528;28;20109;-71
2023/10/04 03:51:50;;;;;;;9.80;2.00;;;11.00;99.90;;;;;;5017467;28;20017;-71
2023/10/04 03:54:15;;;;;;;3.33;1.80;;;10.90;99.90;;;;;;5016430;28;20029;-71
2023/10/04 03:56:41;;;;;;;5.35;1.88;;;11.10;99.90;;;;;;5017109;28;20026;-71
2023/10/04 03:59:08;;;;;;;4.28;2.40;;;11.10;99.90;;;;;;5016290;28;20100;-71
2023/10/04 04:01:33;;;;;;;5.68;2.10;;;11.10;99.90;;;;;;5016242;28;20022;-71
2023/10/04 04:04:03;;;;;;;4.45;2.63;;;11.20;99.90;;;;;;5016173;28;20022;-71
2023/10/04 04:06:29;;;;;;;5.70;1.83;;;11.10;99.90;;;;;;5017047;28;20033;-71
2023/10/04 04:08:56;;;;;;;4.78;2.58;;;11.20;99.90;;;;;;5017338;28;20030;-71
2023/10/04 04:11:25;;;;;;;5.45;2.45;;;11.30;99.90;;;;;;5016951;28;20025;-71
2023/10/04 04:13:50;;;;;;;5.75;2.35;;;11.30;99.90;;;;;;5016413;28;20025;-71
2023/10/04 04:16:17;;;;;;;5.13;2.63;;;11.20;99.90;;;;;;5016121;28;20026;-71
2023/10/04 04:18:44;;;;;;;4.80;2.20;;;11.20;99.90;;;;;;5017033;28;20022;-71
2023/10/04 04:21:10;;;;;;;4.97;2.53;;;11.10;99.90;;;;;;5017239;28;20103;-71
2023/10/04 04:23:36;;;;;;;2.90;1.90;;;11.10;99.90;;;;;;5016815;28;20018;-71
2023/10/04 04:26:05;;;;;;;3.63;2.10;;;11.10;99.90;;;;;;5017122;28;20037;-71
2023/10/04 04:28:37;;;;;;;4.38;2.15;;;11.10;99.90;;;;;;5016291;28;20034;-71
2023/10/04 04:31:14;;;;;;;;;;;11.10;99.90;;;;;;5017354;28;20030;-71
2023/10/04 04:33:41;;;;;;;4.82;2.15;;;11.00;99.90;;;;;;5017304;28;19905;-71
2023/10/04 04:36:16;;;;;;;4.30;2.65;;;11.00;99.90;;;;;;5016739;28;20078;-71
2023/10/04 04:38:41;;;;;;;4.43;2.35;;;11.00;99.90;;;;;;5016799;28;20101;-71
2023/10/04 04:41:11;;;;;;;5.13;2.08;;;11.00;99.90;;;;;;5016060;28;20060;-71
2023/10/04 04:43:37;;;;;;;7.30;2.72;;;11.10;99.90;;;;;;5016667;28;20018;-71
2023/10/04 04:46:09;;;;;;;8.68;3.42;;;11.20;99.90;;;;;;5016746;28;20037;-71
2023/10/04 04:48:38;;;;;;;4.18;2.20;;;11.20;99.90;;;;;;5016726;28;20033;-71
2023/10/04 04:51:11;;;;;;;5.53;2.58;;;11.10;99.90;;;;;;5016607;28;20022;-71
2023/10/04 04:53:41;;;;;;;4.78;2.28;;;11.10;99.90;;;;;;5015695;28;20115;-71
2023/10/04 04:56:12;;;;;;;7.40;2.78;;;11.00;99.90;;;;;;5015509;28;20026;-71
2023/10/04 04:58:39;;;;;;;4.00;2.20;;;11.00;99.90;;;;;;5020421;28;20109;-71
2023/10/04 05:01:08;;;;;;;3.95;2.60;;;11.00;99.90;;;;;;5020332;28;20026;-71
2023/10/04 05:03:34;;;;;;;5.15;2.25;;;11.00;99.90;;;;;;5020150;28;20021;-71
2023/10/04 05:06:00;;;;;;;7.13;1.92;;;11.00;99.90;;;;;;5020051;28;20026;-71
2023/10/04 05:08:26;;;;;;;7.05;2.30;;;11.10;99.90;;;;;;5020205;28;20029;-71
2023/10/04 05:10:54;;;;;;;5.68;2.58;;;11.10;99.90;;;;;;5020218;28;20037;-71
2023/10/04 05:13:21;;;;;;;6.57;2.28;;;11.20;99.90;;;;;;5019179;28;20037;-71
2023/10/04 05:15:49;;;;;;;5.30;2.50;;;11.20;99.90;;;;;;5019083;28;20030;-71
2023/10/04 05:18:16;;;;;;;6.47;2.05;;;11.20;99.90;;;;;;5020583;28;20038;-71
2023/10/04 05:20:54;;;;;;;5.05;2.70;;;11.30;99.90;;;;;;5020086;28;20025;-71
2023/10/04 05:23:22;;;;;;;5.60;2.40;;;11.30;99.90;;;;;;5019154;28;20026;-71
2023/10/04 05:25:49;;;;;;;5.38;1.98;;;11.40;99.90;;;;;;5020060;28;20022;-71
2023/10/04 05:28:15;;;;;;;4.88;2.13;;;11.40;99.90;;;;;;5019807;28;20022;-71
2023/10/04 05:30:43;;;;;;;5.05;2.13;;;11.40;99.90;;;;;;5019166;28;20080;-71
2023/10/04 05:33:10;;;;;;;5.50;2.47;;;11.40;99.90;;;;;;5019658;28;20058;-71
2023/10/04 05:35:36;;;;;;;6.78;2.30;;;11.40;99.90;;;;;;5018908;28;20026;-71
2023/10/04 05:38:04;;;;;;;9.68;2.33;;;11.40;99.90;;;;;;5019546;28;20018;-71
2023/10/04 05:40:43;;;;;;;3.10;1.65;;;11.50;99.90;;;;;;5018645;28;20026;-71
2023/10/04 05:43:09;;;;;;;5.38;2.13;;;11.40;99.90;;;;;;5018700;28;20033;-71
2023/10/04 05:45:36;;;;;;;4.82;2.17;;;11.40;99.90;;;;;;5019366;28;20029;-71
2023/10/04 05:48:04;;;;;;;5.13;2.38;;;11.30;99.90;;;;;;5019659;28;20029;-71
2023/10/04 05:50:32;;;;;;;3.35;1.98;;;11.30;99.90;;;;;;5019462;28;20103;-71
2023/10/04 05:53:01;;;;;;;4.80;2.17;;;11.30;99.90;;;;;;5018409;28;20109;-71
2023/10/04 05:55:27;;;;;;;6.55;3.13;;;11.30;99.90;;;;;;5019137;28;20026;-71
2023/10/04 05:57:52;;;;;;;3.70;2.08;;;11.40;99.90;;;;;;5018385;28;20022;-71
2023/10/04 06:02:56;;;;;;;9.82;2.10;;;11.40;99.90;;;;;;5019425;28;20018;-71
2023/10/04 06:05:23;;;;;;;6.07;2.40;;;11.40;99.90;;;;;;5018962;28;20091;-71
2023/10/04 06:07:56;;;;;;;3.75;1.50;;;11.40;99.90;;;;;;5018561;28;20022;-71
2023/10/04 06:10:24;;;;;;;4.25;1.83;;;11.40;99.90;;;;;;5019300;28;20037;-71
2023/10/04 06:12:54;;;;;;;7.05;2.25;;;11.40;99.90;;;;;;5019275;28;20025;-71
2023/10/04 06:15:20;;;;;;;6.05;2.08;;;11.30;99.90;;;;;;5018198;28;20156;-71
2023/10/04 06:17:47;;;;;;;4.20;2.13;;;11.30;99.90;;;;;;5018340;28;20030;-71
2023/10/04 06:20:33;;;;;;;6.28;2.58;;;11.20;99.90;;;;;;5017951;28;20022;-71
2023/10/04 06:23:01;;;;;;;9.32;2.38;;;11.10;99.90;;;;;;5018798;28;20018;-71
2023/10/04 06:25:29;;;;;;;6.70;2.28;;;11.10;99.90;;;;;;5018160;28;20113;-71
2023/10/04 06:27:56;;;;;;;7.85;2.30;;;11.10;99.90;;;;;;5018706;28;20014;-71
2023/10/04 06:30:27;;;;;;;9.77;2.22;;;11.10;99.90;;;;;;5018338;28;20026;-71
2023/10/04 06:33:00;;;;;;;9.90;2.58;;;11.10;99.90;;;;;;5018645;28;20101;-71
2023/10/04 06:35:27;;;;;;;3.17;2.13;;;11.30;99.90;;;;;;5018396;28;20026;-71
2023/10/04 06:37:54;;;;;;;6.53;2.42;;;11.30;99.90;;;;;;5018650;28;20026;-71
2023/10/04 06:40:20;;;;;;;9.13;2.88;;;11.40;99.90;;;;;;5018393;28;20029;-71
2023/10/04 06:42:48;;;;;;;3.85;2.20;;;11.50;99.90;;;;;;5018341;28;20053;-71
2023/10/04 06:45:17;;;;;;;6.22;2.47;;;11.50;99.90;;;;;;5018562;28;20029;-71
2023/10/04 06:47:45;;;;;;;11.63;2.72;;;11.50;99.90;;;;;;5018207;28;20029;-71
2023/10/04 06:50:15;;;;;;;10.45;2.70;;;11.60;99.90;;;;;;5018458;28;20014;-71
2023/10/04 06:52:47;;;;;;;4.70;2.38;;;11.60;99.90;;;;;;5018449;28;20033;-71
2023/10/04 06:55:13;;;;;;;5.15;2.40;;;11.70;99.90;;;;;;5018149;28;20021;-71
2023/10/04 06:57:39;;;;;;;4.40;2.08;;;11.80;99.90;;;;;;5018097;28;20029;-71
2023/10/04 07:00:15;;;;;;;8.55;2.85;;;11.90;99.90;;;;;;5018355;28;20036;-71
2023/10/04 07:02:45;;;;;;;15.73;2.33;;;12.00;99.90;;;;;;5018086;28;20046;-71
2023/10/04 07:05:18;;;;;;;10.02;2.53;;;12.10;99.90;;;;;;5017929;28;20108;-71
2023/10/04 07:07:48;;;;;;;11.93;2.85;;;12.10;99.90;;;;;;5017052;28;20077;-71
2023/10/04 07:10:15;;;;;;;6.13;2.50;;;12.10;99.90;;;;;;5017056;28;20069;-71
2023/10/04 07:12:43;;;;;;;9.52;2.40;;;12.10;99.90;;;;;;5018086;28;20018;-71
2023/10/04 07:15:10;;;;;;;6.05;2.25;;;12.20;99.90;;;;;;5018072;28;20018;-71
2023/10/04 07:17:39;;;;;;;5.55;2.47;;;12.20;99.90;;;;;;5018275;28;20026;-71
2023/10/04 07:20:15;;;;;;;7.38;2.85;;;12.30;99.90;;;;;;5015994;28;20030;-71
2023/10/04 07:23:03;;;;;;;8.23;2.97;;;12.30;99.90;;;;;;5016933;28;20087;-71
2023/10/04 07:25:34;;;;;;;15.15;2.95;;;12.20;99.90;;;;;;5017872;28;20025;-71
2023/10/04 07:28:02;;;;;;;7.18;2.60;;;12.10;99.90;;;;;;5018353;28;20029;-71
2023/10/04 07:30:29;;;;;;;6.88;2.25;;;12.20;99.90;;;;;;5016618;28;20104;-71
2023/10/04 07:32:55;;;;;;;6.22;2.53;;;12.20;99.90;;;;;;5017648;28;20101;-71
2023/10/04 07:35:25;;;;;;;10.18;2.42;;;12.30;99.90;;;;;;5016536;28;20045;-71
2023/10/04 07:37:55;;;;;;;7.85;3.03;;;12.40;99.90;;;;;;5017618;28;20036;-71
2023/10/04 07:40:23;;;;;;;6.40;3.10;;;12.50;99.90;;;;;;5016622;28;20053;-72
2023/10/04 07:42:52;;;;;;;7.10;3.35;;;12.50;99.90;;;;;;5017424;28;20022;-71
2023/10/04 07:45:18;;;;;;;6.72;2.08;;;12.40;99.90;;;;;;5017498;28;20022;-71
2023/10/04 07:47:45;;;;;;;5.72;2.92;;;12.50;99.90;;;;;;5016289;28;20033;-71
2023/10/04 07:50:13;;;;;;;6.25;2.42;;;12.60;99.90;;;;;;5017291;28;20045;-71
2023/10/04 07:52:41;;;;;;;7.93;3.58;;;12.60;99.90;;;;;;5017408;28;20103;-71
2023/10/04 07:55:14;;;;;;;8.73;3.22;;;12.60;99.90;;;;;;5017234;28;20018;-71
2023/10/04 07:57:43;;;;;;;14.35;3.45;;;12.50;99.90;;;;;;5017335;28;20026;-71
2023/10/04 08:00:14;;;;;;;8.45;2.92;;;12.50;99.90;;;;;;5017169;28;20025;-71
2023/10/04 08:02:51;;;;;;;8.23;3.20;;;12.50;99.90;;;;;;5017358;28;20026;-71
2023/10/04 08:05:19;;;;;;;12.07;3.53;;;12.40;99.90;;;;;;5016310;28;20098;-71
2023/10/04 08:07:56;;;;;;;10.88;3.22;;;12.30;99.90;;;;;;5016906;28;20022;-71
2023/10/04 08:10:25;;;;;;;7.80;2.72;;;12.40;99.90;;;;;;5017014;28;20026;-71
2023/10/04 08:12:52;;;;;;;8.43;2.70;;;12.40;99.90;;;;;;5017128;28;20014;-71
2023/10/04 08:15:19;;;;;;;17.80;4.63;;;12.50;99.90;;;;;;5016944;28;20069;-71
2023/10/04 08:17:48;;;;;;;8.48;2.30;;;12.70;99.90;;;;;;5016078;28;20116;-68
2023/10/04 08:20:17;;;;;;;3.78;2.03;;;12.80;99.90;;;;;;5016320;28;20030;-69
2023/10/04 08:22:44;;;;;;;16.48;2.85;;;13.00;99.90;;;;;;5016909;28;20022;-68
2023/10/04 08:25:12;;;;;;;5.32;2.45;;;13.20;99.90;;;;;;5016033;28;20060;-68
2023/10/04 08:27:39;;;;;;;8.63;2.38;;;13.20;99.90;;;;;;5016912;28;20022;-68
2023/10/04 08:30:12;;;;;;;5.28;1.77;;;13.20;99.90;;;;;;5017172;28;20030;-68
2023/10/04 08:32:47;;;;;;;8.68;2.05;;;13.20;99.90;;;;;;5020440;28;20045;-68
2023/10/04 08:35:28;;;;;;;8.88;1.95;;;13.40;99.90;;;;;;5020946;28;20102;-68
2023/10/04 08:37:58;;;;;;;8.87;1.67;;;13.50;99.90;;;;;;5020881;28;20033;-68
2023/10/04 08:40:27;;;;;;;3.50;1.60;;;13.70;99.90;;;;;;5020744;28;20049;-68
2023/10/04 08:42:53;;;;;;;12.13;1.70;;;13.70;99.90;;;;;;5021182;28;20025;-68
2023/10/04 08:45:27;;;;;;;3.42;1.42;;;13.70;99.90;;;;;;5020511;28;20026;-68
2023/10/04 08:47:57;;;;;;;6.22;2.30;;;13.50;99.90;;;;;;5020615;28;20021;-68
2023/10/04 08:50:41;;;;;;;8.10;2.22;;;13.50;99.90;;;;;;5020738;28;20018;-68
2023/10/04 08:53:34;;;;;;;4.25;1.95;;;13.50;99.90;;;;;;5020786;28;20018;-68
2023/10/04 08:56:05;;;;;;;6.72;1.85;;;13.60;99.90;;;;;;5020117;28;20026;-68
2023/10/04 08:58:31;;;;;;;8.52;2.42;;;13.80;99.90;;;;;;5020599;28;20032;-68
2023/10/04 09:00:57;;;;;;;4.93;1.90;;;13.90;99.90;;;;;;5020318;28;20076;-68
2023/10/04 09:03:24;;;;;;;4.68;1.92;;;14.10;99.90;;;;;;5019709;28;20021;-68
2023/10/04 09:05:53;;;;;;;6.85;1.92;;;14.10;99.90;;;;;;5019373;28;20025;-68
2023/10/04 09:08:22;;;;;;;5.30;1.70;;;14.10;99.90;;;;;;5020129;28;20033;-68
2023/10/04 09:10:47;;;;;;;7.40;1.73;;;14.20;99.90;;;;;;5020690;28;20018;-68
2023/10/04 09:13:13;;;;;;;6.68;2.13;;;14.10;99.90;;;;;;5019193;28;20033;-68
2023/10/04 09:15:40;;;;;;;5.30;2.08;;;14.00;99.90;;;;;;5019145;28;20022;-68
2023/10/04 09:18:07;;;;;;;6.68;2.75;;;14.10;99.90;;;;;;5019220;28;20014;-71
2023/10/04 09:20:33;;;;;;;8.80;2.80;;;14.10;99.90;;;;;;5020157;28;20022;-71
2023/10/04 09:22:59;;;;;;;9.02;2.38;;;14.50;99.90;;;;;;5019897;28;20030;-68
2023/10/04 09:25:36;;;;;;;8.45;3.05;;;14.60;99.90;;;;;;5019463;28;20058;-71
2023/10/04 09:28:01;;;;;;;8.52;2.15;;;14.70;99.90;;;;;;5019644;28;20061;-72
2023/10/04 09:30:28;;;;;;;7.88;2.20;;;14.80;99.90;;;;;;5019800;28;20026;-65
2023/10/04 09:32:53;;;;;;;6.78;2.00;;;14.80;99.90;;;;;;5018797;28;20022;-65
2023/10/04 09:35:20;;;;;;;6.55;2.65;;;14.90;99.90;;;;;;5019896;28;20018;-65
2023/10/04 09:37:49;;;;;;;10.25;2.38;;;15.00;99.90;;;;;;5018758;28;20057;-71
2023/10/04 09:40:17;;;;;;;7.32;2.05;;;15.20;99.90;;;;;;5019566;28;20022;-67
2023/10/04 09:42:55;;;;;;;3.28;1.20;;;15.30;99.90;;;;;;5018126;28;20026;-67
2023/10/04 09:45:24;;;;;;;11.88;2.20;;;15.40;99.90;;;;;;5019568;28;20020;-72
2023/10/04 09:47:51;;;;;;;10.15;2.15;;;15.50;99.90;;;;;;5018873;28;20018;-65
2023/10/04 09:50:25;;;;;;;5.63;1.80;;;15.70;99.90;;;;;;5019445;28;20098;-67
2023/10/04 09:52:51;;;;;;;7.22;1.75;;;15.60;99.90;;;;;;5019619;28;20026;-72
2023/10/04 09:55:17;;;;;;;7.18;1.95;;;15.60;99.90;;;;;;5019295;28;20112;-65
2023/10/04 09:57:43;;;;;;;9.43;2.28;;;15.80;99.90;;;;;;5018204;28;20053;-68
2023/10/04 10:00:17;;;;;;;4.38;1.73;;;16.10;99.90;;;;;;5019390;28;20073;-67
2023/10/04 10:02:48;;;;;;;7.90;1.80;;;16.30;99.90;;;;;;5019197;28;20029;-65
2023/10/04 10:05:26;;;;;;;7.32;2.25;;;16.20;99.90;;;;;;5019130;28;20022;-67
2023/10/04 10:07:53;;;;;;;7.35;2.15;;;16.40;99.90;;;;;;5019367;28;20053;-65
2023/10/04 10:10:21;;;;;;;8.60;2.00;;;16.40;99.90;;;;;;5018960;28;20029;-67
2023/10/04 10:12:51;;;;;;;16.55;1.75;;;16.40;99.90;;;;;;5018095;28;20108;-67
2023/10/04 10:15:18;;;;;;;7.90;1.80;;;16.50;99.90;;;;;;5018739;28;20076;-67
2023/10/04 10:17:46;;;;;;;8.25;2.47;;;16.40;99.90;;;;;;5018746;28;20030;-68
2023/10/04 10:20:12;;;;;;;5.03;1.73;;;16.50;99.90;;;;;;5018965;28;20054;-68
2023/10/04 10:22:57;;;;;;;7.05;1.92;;;16.50;99.90;;;;;;5017848;28;20022;-68
2023/10/04 10:25:23;;;;;;;5.35;1.33;;;16.60;99.90;;;;;;5018229;28;20014;-67
2023/10/04 10:27:49;;;;;;;3.20;1.67;;;16.80;99.90;;;;;;5018018;28;20068;-68
2023/10/04 10:30:16;;;;;;;6.07;2.20;;;17.00;99.90;;;;;;5018814;28;20093;-68
2023/10/04 10:33:02;;;;;;;7.50;1.73;;;17.30;99.90;;;;;;5018575;28;20030;-65
2023/10/04 10:35:50;;;;;;;6.78;1.73;;;17.30;99.90;;;;;;5018403;28;20021;-71
2023/10/04 10:38:41;;;;;;;17.48;2.30;;;17.70;99.90;;;;;;5018649;28;20022;-71
2023/10/04 10:41:08;;;;;;;15.85;3.60;;;18.00;99.90;;;;;;5018858;28;20029;-72
2023/10/04 10:43:37;;;;;;;17.58;3.10;;;18.10;99.90;;;;;;5018652;28;20014;-72
2023/10/04 10:46:28;;;;;;;6.47;2.05;;;18.50;99.90;;;;;;5018169;28;20164;-72
2023/10/04 10:49:00;;;;;;;10.13;2.10;;;18.80;99.90;;;;;;5018553;28;20045;-72
2023/10/04 10:51:45;;;;;;;;;;;18.90;99.90;;;;;;5017762;28;20031;-65
2023/10/04 10:54:12;;;;;;;8.27;1.80;;;18.90;99.90;;;;;;5017343;28;19905;-65
2023/10/04 10:56:38;;;;;;;4.53;1.67;;;19.20;99.90;;;;;;5018201;28;20025;-65
2023/10/04 10:59:06;;;;;;;4.00;1.58;;;19.20;99.90;;;;;;5017512;28;20033;-65
2023/10/04 11:01:32;;;;;;;5.90;1.90;;;19.40;99.90;;;;;;5017695;28;20033;-65
2023/10/04 11:03:59;;;;;;;11.50;2.47;;;19.60;99.90;;;;;;5017169;28;20017;-65
2023/10/04 11:06:26;;;;;;;9.05;1.83;;;19.80;99.90;;;;;;5018106;28;20025;-65
2023/10/04 11:08:55;;;;;;;7.25;2.03;;;20.00;99.90;;;;;;5018005;28;20112;-65
2023/10/04 11:11:21;;;;;;;7.10;2.25;;;19.90;99.90;;;;;;5017967;28;20022;-65
2023/10/04 11:13:48;;;;;;;5.80;2.03;;;20.30;99.90;;;;;;5017382;28;20029;-65
2023/10/04 11:16:14;;;;;;;6.85;2.30;;;20.60;99.90;;;;;;5017750;28;20022;-65
2023/10/04 11:18:45;;;;;;;11.00;2.33;;;20.50;99.90;;;;;;5018089;28;20050;-65
2023/10/04 11:21:11;;;;;;;4.63;1.88;;;20.30;99.90;;;;;;5018073;28;20014;-65
2023/10/04 11:23:37;;;;;;;15.55;2.55;;;20.30;99.90;;;;;;5017989;28;20048;-65
2023/10/04 11:26:04;;;;;;;7.43;1.90;;;20.10;99.90;;;;;;5017778;28;20064;-65
2023/10/04 11:28:30;;;;;;;7.45;2.13;;;20.20;99.90;;;;;;5016718;28;20026;-65
2023/10/04 11:30:56;;;;;;;5.18;1.73;;;20.40;99.90;;;;;;5016840;28;20037;-65
2023/10/04 11:33:23;;;;;;;5.72;1.98;;;20.50;99.90;;;;;;5017954;28;20029;-65
2023/10/04 11:35:49;;;;;;;7.25;2.08;;;20.50;99.90;;;;;;5017497;28;20225;-65
2023/10/04 11:38:19;;;;;;;4.03;2.05;;;20.60;99.90;;;;;;5017826;28;20066;-65
2023/10/04 11:40:47;;;;;;;5.95;2.13;;;20.80;99.90;;;;;;5016575;28;20026;-65
2023/10/04 11:43:14;;;;;;;13.10;2.90;;;21.00;99.90;;;;;;5016659;28;20028;-65
2023/10/04 11:45:40;;;;;;;6.60;2.15;;;21.20;99.90;;;;;;5017320;28;20026;-65
2023/10/04 11:48:10;;;;;;;10.25;2.50;;;21.20;99.90;;;;;;5017593;28;20030;-65
2023/10/04 11:50:50;;;;;;;7.70;2.57;;;21.50;99.90;;;;;;5017555;28;20014;-65
2023/10/04 11:53:33;;;;;;;6.30;2.33;;;21.50;99.90;;;;;;5017450;28;20022;-65
2023/10/04 11:56:00;;;;;;;5.93;2.03;;;21.40;99.90;;;;;;5017414;28;20028;-65
2023/10/04 11:58:27;;;;;;;7.78;2.67;;;21.50;99.90;;;;;;5017200;28;20025;-65
2023/10/04 12:01:06;;;;;;;8.68;2.38;;;21.40;99.90;;;;;;5016331;28;20121;-65
2023/10/04 12:03:32;;;;;;;7.35;2.45;;;21.10;99.90;;;;;;5017386;28;20098;-65
2023/10/04 12:05:59;;;;;;;5.60;2.08;;;20.90;99.90;;;;;;5016733;28;20040;-65
2023/10/04 12:08:25;;;;;;;11.20;2.58;;;21.00;99.90;;;;;;5016577;28;20084;-65
2023/10/04 12:10:50;;;;;;;5.60;2.35;;;21.00;99.90;;;;;;5017233;28;20107;-65
2023/10/04 12:13:16;;;;;;;8.20;2.47;;;20.90;99.90;;;;;;5016205;28;20057;-65
2023/10/04 12:15:42;;;;;;;7.07;2.40;;;20.90;99.90;;;;;;5016528;28;20030;-65
2023/10/04 12:18:09;;;;;;;7.78;3.10;;;20.80;99.90;;;;;;5017063;28;20026;-65
2023/10/04 12:20:36;;;;;;;7.50;3.45;;;20.50;99.90;;;;;;5017078;28;20018;-65
2023/10/04 12:23:02;;;;;;;10.10;2.63;;;20.10;99.90;;;;;;5017175;28;20022;-65
2023/10/04 12:25:28;;;;;;;8.82;2.50;;;19.90;99.90;;;;;;5016239;28;20069;-65
2023/10/04 12:27:54;;;;;;;5.72;2.42;;;19.70;99.90;;;;;;5016331;28;20018;-65
2023/10/04 12:30:21;;;;;;;6.65;2.22;;;19.60;99.90;;;;;;5016123;28;20030;-65
2023/10/04 12:32:46;;;;;;;10.27;2.60;;;19.40;99.90;;;;;;5017155;28;20038;-65
2023/10/04 12:35:13;;;;;;;7.72;2.42;;;19.40;99.90;;;;;;5016853;28;20032;-65
2023/10/04 12:37:39;;;;;;;4.97;2.03;;;19.40;99.90;;;;;;5016661;28;20068;-65
2023/10/04 12:40:17;;;;;;;6.20;2.08;;;19.20;99.90;;;;;;5016853;28;20022;-65
2023/10/04 12:42:44;;;;;;;6.40;2.00;;;19.30;99.90;;;;;;5017002;28;20030;-65
2023/10/04 12:45:10;;;;;;;7.15;2.08;;;19.20;99.90;;;;;;5016792;28;20028;-65
2023/10/04 12:47:36;;;;;;;7.13;2.40;;;19.20;99.90;;;;;;5016687;28;20106;-65
2023/10/04 12:50:03;;;;;;;5.47;1.67;;;19.20;99.90;;;;;;5015965;28;20037;-65
2023/10/04 12:52:31;;;;;;;7.10;2.17;;;19.00;99.90;;;;;;5016186;28;20037;-65
2023/10/04 12:54:57;;;;;;;7.18;2.53;;;19.00;99.90;;;;;;5016075;28;20026;-65